Time;durP1;ratioP1;P1;durP2;ratioP2;P2;SDS_P1;SDS_P2;PMS_P1;PMS_P2;Temp;Humidity;BMP_temperature;BMP_pressure;BME280_temperature;BME280_humidity;BME280_pressure;Samples;Min_cycle;Max_cycle;Signal;HPM_P1;HPM_P2
2022/06/20 00:01:18;;;;;;;3.53;1.00;;;13.40;99.90;;;;;;5029627;28;20045;-77
2022/06/20 00:03:46;;;;;;;4.63;1.35;;;13.50;99.90;;;;;;5029906;28;20064;-77
2022/06/20 00:06:17;;;;;;;4.68;1.20;;;13.50;99.90;;;;;;5029673;28;20045;-77
2022/06/20 00:08:43;;;;;;;2.17;1.35;;;13.40;99.90;;;;;;5013707;28;20377;-77
2022/06/20 00:11:15;;;;;;;5.63;1.63;;;13.40;99.90;;;;;;5029452;28;20156;-77
2022/06/20 00:13:44;;;;;;;2.65;1.20;;;13.40;99.90;;;;;;5029599;28;20556;-75
2022/06/20 00:16:14;;;;;;;8.18;1.67;;;13.30;99.90;;;;;;5013363;28;20442;-77
2022/06/20 00:18:40;;;;;;;4.90;1.75;;;13.30;99.90;;;;;;5032845;28;20048;-77
2022/06/20 00:21:10;;;;;;;7.10;1.50;;;13.20;99.90;;;;;;5033448;28;20037;-77
2022/06/20 00:23:35;;;;;;;5.75;1.55;;;13.10;99.90;;;;;;5034004;28;20064;-77
2022/06/20 00:26:01;;;;;;;3.78;1.52;;;13.10;99.90;;;;;;5033183;28;20408;-76
2022/06/20 00:28:27;;;;;;;5.93;1.80;;;13.00;99.90;;;;;;5033984;28;20041;-77
2022/06/20 00:30:52;;;;;;;6.18;2.30;;;13.10;99.90;;;;;;5033345;28;20484;-77
2022/06/20 00:33:18;;;;;;;5.40;1.58;;;12.90;99.90;;;;;;5033434;28;20459;-77
2022/06/20 00:35:43;;;;;;;6.28;1.60;;;12.80;99.90;;;;;;5033656;28;20033;-76
2022/06/20 00:38:20;;;;;;;5.55;1.77;;;13.00;99.90;;;;;;5034834;28;20493;-77
2022/06/20 00:41:14;;;;;;;2.75;1.23;;;13.00;99.90;;;;;;5034484;28;20091;-77
2022/06/20 00:43:43;;;;;;;6.43;1.30;;;13.00;99.90;;;;;;5033344;28;20112;-76
2022/06/20 00:46:22;;;;;;;5.85;1.83;;;13.10;99.90;;;;;;5017012;28;20104;-77
2022/06/20 00:49:11;;;;;;;5.38;1.70;;;13.00;99.90;;;;;;5033543;28;20045;-77
2022/06/20 00:51:43;;;;;;;10.27;1.60;;;13.10;99.90;;;;;;5033004;28;20072;-77
2022/06/20 00:54:28;;;;;;;7.90;1.55;;;13.10;99.90;;;;;;5033172;28;20053;-77
2022/06/20 00:57:10;;;;;;;2.65;1.35;;;13.10;99.90;;;;;;5033416;28;20041;-76
2022/06/20 00:59:43;;;;;;;3.47;1.20;;;13.10;99.90;;;;;;5033260;28;20049;-77
2022/06/20 01:02:12;;;;;;;5.78;1.98;;;13.10;99.90;;;;;;5033074;28;20044;-77
2022/06/20 01:04:49;;;;;;;5.57;1.67;;;13.10;99.90;;;;;;5032738;28;20041;-77
2022/06/20 01:07:47;;;;;;;8.50;1.80;;;13.10;99.90;;;;;;5033087;28;20041;-77
2022/06/20 01:10:15;;;;;;;5.47;1.40;;;13.10;99.90;;;;;;5032060;28;20144;-77
2022/06/20 01:12:53;;;;;;;5.75;1.63;;;13.10;99.90;;;;;;5033957;28;20065;-77
2022/06/20 01:15:22;;;;;;;3.20;1.45;;;13.00;99.90;;;;;;5033072;28;20041;-77
2022/06/20 01:17:49;;;;;;;8.23;1.77;;;13.00;99.90;;;;;;5032939;28;20128;-77
2022/06/20 01:20:17;;;;;;;6.60;1.65;;;12.90;99.90;;;;;;5032594;28;20048;-77
2022/06/20 01:22:54;;;;;;;8.30;1.90;;;12.90;99.90;;;;;;5032636;28;20362;-77
2022/06/20 01:25:47;;;;;;;4.75;1.58;;;12.90;99.90;;;;;;5032706;28;20184;-77
2022/06/20 01:28:17;;;;;;;8.43;1.90;;;12.90;99.90;;;;;;5032342;28;20130;-76
2022/06/20 01:30:46;;;;;;;11.57;2.00;;;12.80;99.90;;;;;;5031541;28;20046;-77
2022/06/20 01:33:14;;;;;;;3.28;1.70;;;12.90;99.90;;;;;;5032394;28;20045;-77
2022/06/20 01:38:27;;;;;;;3.50;1.83;;;12.90;99.90;;;;;;5016027;28;20044;-77
2022/06/20 01:43:37;;;;;;;6.18;2.03;;;12.90;99.90;;;;;;5015884;28;20124;-77
2022/06/20 01:46:09;;;;;;;7.85;2.00;;;13.00;99.90;;;;;;5032306;28;20080;-77
2022/06/20 01:48:52;;;;;;;6.63;2.13;;;13.00;99.90;;;;;;5032575;28;20045;-77
2022/06/20 01:51:22;;;;;;;6.85;2.03;;;13.00;99.90;;;;;;5032003;28;20049;-75
2022/06/20 01:53:51;;;;;;;5.55;1.73;;;13.00;99.90;;;;;;5032197;28;20412;-77
2022/06/20 01:56:19;;;;;;;4.15;1.60;;;13.00;99.90;;;;;;5032069;28;20052;-77
2022/06/20 01:58:51;;;;;;;8.20;1.55;;;13.00;99.90;;;;;;5032039;28;20044;-77
2022/06/20 02:01:17;;;;;;;6.32;1.90;;;13.10;99.90;;;;;;5032158;28;20064;-76
2022/06/20 02:03:45;;;;;;;6.55;1.85;;;13.00;99.90;;;;;;5032252;28;20045;-77
2022/06/20 02:06:13;;;;;;;4.47;1.80;;;13.00;99.90;;;;;;5031879;28;20523;-77
2022/06/20 02:08:41;;;;;;;8.90;1.90;;;13.00;99.90;;;;;;5033316;28;20497;-77
2022/06/20 02:11:17;;;;;;;5.15;1.40;;;12.90;99.90;;;;;;5031795;28;20084;-77
2022/06/20 02:13:46;;;;;;;7.30;1.70;;;12.90;99.90;;;;;;5031853;28;20060;-77
2022/06/20 02:16:16;;;;;;;8.80;2.05;;;12.80;99.90;;;;;;5031745;28;20051;-77
2022/06/20 02:18:46;;;;;;;4.57;1.73;;;12.70;99.90;;;;;;5032426;28;20401;-76
2022/06/20 02:21:26;;;;;;;7.97;1.83;;;12.70;99.90;;;;;;5031820;28;20081;-77
2022/06/20 02:23:57;;;;;;;6.20;1.85;;;12.60;99.90;;;;;;5031987;28;20448;-77
2022/06/20 02:26:23;;;;;;;9.20;2.00;;;12.60;99.90;;;;;;5031858;28;20103;-76
2022/06/20 02:29:09;;;;;;;4.50;1.95;;;12.50;99.90;;;;;;5031404;28;20060;-77
2022/06/20 02:31:35;;;;;;;11.50;1.98;;;12.40;99.90;;;;;;5031702;28;20075;-76
2022/06/20 02:34:02;;;;;;;6.38;1.98;;;12.30;99.90;;;;;;5031358;28;20117;-77
2022/06/20 02:36:28;;;;;;;9.38;2.95;;;12.30;99.90;;;;;;5031333;28;20064;-77
2022/06/20 02:38:54;;;;;;;4.00;1.60;;;12.30;99.90;;;;;;5031478;28;20096;-77
2022/06/20 02:41:24;;;;;;;5.07;2.35;;;12.30;99.90;;;;;;5031427;28;20041;-77
2022/06/20 02:43:59;;;;;;;4.40;1.80;;;12.20;99.90;;;;;;5032446;28;20523;-77
2022/06/20 02:46:27;;;;;;;3.53;1.48;;;12.10;99.90;;;;;;5031525;28;20045;-77
2022/06/20 02:48:54;;;;;;;8.30;2.03;;;12.00;99.90;;;;;;5031170;28;20100;-77
2022/06/20 02:51:27;;;;;;;8.82;2.08;;;12.00;99.90;;;;;;5031156;28;20511;-77
2022/06/20 02:54:01;;;;;;;6.50;1.80;;;12.00;99.90;;;;;;5031261;28;20077;-77
2022/06/20 02:56:31;;;;;;;6.18;2.10;;;11.80;99.90;;;;;;5014729;28;20093;-77
2022/06/20 02:58:59;;;;;;;4.28;1.60;;;11.80;99.90;;;;;;5031239;28;20052;-77
2022/06/20 03:01:34;;;;;;;8.00;1.92;;;11.80;99.90;;;;;;5030690;28;20061;-77
2022/06/20 03:04:01;;;;;;;6.75;1.70;;;11.70;99.90;;;;;;5030972;28;20037;-77
2022/06/20 03:06:32;;;;;;;4.22;2.10;;;11.70;99.90;;;;;;5030948;28;20049;-77
2022/06/20 03:08:58;;;;;;;5.13;1.77;;;11.60;99.90;;;;;;5014728;28;20484;-76
2022/06/20 03:11:27;;;;;;;4.95;2.10;;;11.60;99.90;;;;;;5030520;28;20081;-77
2022/06/20 03:13:55;;;;;;;4.95;2.10;;;11.60;99.90;;;;;;5033122;28;20092;-76
2022/06/20 03:16:22;;;;;;;4.28;1.88;;;11.60;99.90;;;;;;5042871;28;20542;-77
2022/06/20 03:18:50;;;;;;;5.35;1.85;;;11.60;99.90;;;;;;5026982;28;20093;-77
2022/06/20 03:21:22;;;;;;;2.97;2.20;;;11.50;99.90;;;;;;5033337;28;20045;-77
2022/06/20 03:23:49;;;;;;;6.38;2.85;;;11.50;99.90;;;;;;5030906;28;20073;-77
2022/06/20 03:26:20;;;;;;;7.68;2.33;;;11.50;99.90;;;;;;5030633;28;20519;-77
2022/06/20 03:28:46;;;;;;;5.03;2.17;;;11.50;99.90;;;;;;5030712;28;20041;-77
2022/06/20 03:31:12;;;;;;;5.00;1.58;;;11.50;99.90;;;;;;5031618;28;20435;-77
2022/06/20 03:33:38;;;;;;;5.75;1.90;;;11.50;99.90;;;;;;5030869;28;20405;-78
2022/06/20 03:36:21;;;;;;;6.88;2.50;;;11.40;99.90;;;;;;5030610;28;20073;-77
2022/06/20 03:38:49;;;;;;;4.32;2.20;;;11.50;99.90;;;;;;5030613;28;20052;-77
2022/06/20 03:41:18;;;;;;;5.28;1.92;;;11.50;99.90;;;;;;5030579;28;20037;-77
2022/06/20 03:43:50;;;;;;;6.38;2.47;;;11.50;99.90;;;;;;5030735;28;20515;-77
2022/06/20 03:46:25;;;;;;;5.60;1.83;;;11.50;99.90;;;;;;5030692;28;20046;-77
2022/06/20 03:49:04;;;;;;;4.20;1.75;;;11.50;99.90;;;;;;5030876;28;20524;-76
2022/06/20 03:51:38;;;;;;;4.40;1.83;;;11.50;99.90;;;;;;5031281;28;20029;-78
2022/06/20 03:54:20;;;;;;;5.88;2.67;;;11.50;99.90;;;;;;5031797;28;20041;-77
2022/06/20 03:56:57;;;;;;;8.13;2.63;;;11.50;99.90;;;;;;5031838;28;20042;-77
2022/06/20 03:59:23;;;;;;;3.55;2.30;;;11.40;99.90;;;;;;5030392;28;20056;-76
2022/06/20 04:02:01;;;;;;;6.30;2.33;;;11.50;99.90;;;;;;5030139;28;20411;-78
2022/06/20 04:04:33;;;;;;;7.00;2.42;;;11.50;99.90;;;;;;5014135;28;20033;-76
2022/06/20 04:07:11;;;;;;;4.35;2.10;;;11.50;99.90;;;;;;5030549;28;20100;-77
2022/06/20 04:12:32;;;;;;;5.43;2.03;;;11.50;99.90;;;;;;5031854;28;20080;-77
2022/06/20 04:15:06;;;;;;;3.33;2.40;;;11.40;99.90;;;;;;5031512;28;20030;-78
2022/06/20 04:20:47;;;;;;;6.32;2.28;;;11.60;99.90;;;;;;5030319;28;20444;-78
2022/06/20 04:23:22;;;;;;;6.20;1.95;;;11.60;99.90;;;;;;5031519;28;20049;-79
2022/06/20 04:26:12;;;;;;;5.53;2.35;;;11.60;99.90;;;;;;5031344;28;20452;-79
2022/06/20 04:29:04;;;;;;;8.75;2.15;;;11.70;99.90;;;;;;5015749;28;20047;-78
2022/06/20 04:31:44;;;;;;;6.43;2.47;;;11.70;99.90;;;;;;5032877;28;20052;-79
2022/06/20 04:34:16;;;;;;;6.97;2.40;;;11.70;99.90;;;;;;5015241;28;20044;-79
2022/06/20 04:37:04;;;;;;;6.32;3.20;;;11.80;99.90;;;;;;5015247;28;20041;-79
2022/06/20 04:39:38;;;;;;;7.35;2.47;;;11.90;99.90;;;;;;5015173;28;20045;-79
2022/06/20 04:42:18;;;;;;;6.47;2.55;;;12.20;99.90;;;;;;5031830;28;20049;-79
2022/06/20 04:44:51;;;;;;;11.50;3.65;;;12.30;99.90;;;;;;5031096;28;20037;-78
2022/06/20 04:47:36;;;;;;;7.05;3.08;;;12.40;99.90;;;;;;5032969;28;20053;-79
2022/06/20 04:50:03;;;;;;;7.03;2.33;;;12.50;99.90;;;;;;5032256;28;20400;-79
2022/06/20 04:52:30;;;;;;;4.95;2.03;;;12.90;99.90;;;;;;5032623;28;20080;-79
2022/06/20 04:54:58;;;;;;;3.97;2.00;;;13.20;99.90;;;;;;5032945;28;20119;-79
2022/06/20 04:57:26;;;;;;;4.95;1.67;;;13.40;99.90;;;;;;5031123;28;20048;-79
2022/06/20 04:59:56;;;;;;;6.28;2.25;;;13.30;99.90;;;;;;5031923;28;20042;-80
2022/06/20 05:02:23;;;;;;;6.43;2.95;;;13.40;99.90;;;;;;5014440;28;20038;-79
2022/06/20 05:04:52;;;;;;;9.23;2.40;;;13.40;99.90;;;;;;5031897;28;20045;-79
2022/06/20 05:07:26;;;;;;;7.03;2.33;;;13.60;99.90;;;;;;5033830;28;20448;-80
2022/06/20 05:10:18;;;;;;;9.82;2.40;;;14.10;99.90;;;;;;5034092;28;20049;-79
2022/06/20 05:12:48;;;;;;;;;;;14.70;99.90;;;;;;5037379;28;20047;-80
2022/06/20 05:15:23;;;;;;;4.30;2.20;;;15.30;99.90;;;;;;5019244;28;19955;-80
2022/06/20 05:17:50;;;;;;;7.07;2.03;;;15.90;99.90;;;;;;5034051;28;20042;-80
2022/06/20 05:20:15;;;;;;;9.27;2.22;;;16.50;99.90;;;;;;5017227;28;20091;-80
2022/06/20 05:22:47;;;;;;;6.57;2.60;;;16.90;99.90;;;;;;5018074;28;20448;-80
2022/06/20 05:25:18;;;;;;;7.20;2.03;;;17.20;99.90;;;;;;5018343;28;20583;-80
2022/06/20 05:27:51;;;;;;;7.10;1.83;;;17.70;99.90;;;;;;5034298;28;20124;-79
2022/06/20 05:30:21;;;;;;;6.60;2.38;;;18.00;99.90;;;;;;5033612;28;20046;-80
2022/06/20 05:32:56;;;;;;;5.88;2.35;;;18.40;99.90;;;;;;5017334;28;20044;-80
2022/06/20 05:35:26;;;;;;;9.23;2.90;;;18.90;99.90;;;;;;5033469;28;20084;-80
2022/06/20 05:38:01;;;;;;;4.15;2.08;;;19.10;99.90;;;;;;5016992;28;20041;-80
2022/06/20 05:40:31;;;;;;;7.75;1.90;;;19.30;99.90;;;;;;5033603;28;20512;-79
2022/06/20 05:42:57;;;;;;;5.13;2.05;;;19.60;99.90;;;;;;5019402;28;20541;-80
2022/06/20 05:45:24;;;;;;;7.63;1.95;;;19.90;99.90;;;;;;5017607;28;20071;-80
2022/06/20 05:47:53;;;;;;;5.25;1.52;;;20.00;99.90;;;;;;5015038;28;20373;-80
2022/06/20 05:50:31;;;;;;;4.00;1.55;;;20.30;99.90;;;;;;5032593;28;20041;-81
2022/06/20 05:52:59;;;;;;;5.32;1.40;;;20.40;99.90;;;;;;5034562;28;20037;-81
2022/06/20 05:55:30;;;;;;;7.40;1.90;;;20.60;99.90;;;;;;5032813;28;20041;-80
2022/06/20 05:57:58;;;;;;;3.35;1.35;;;20.60;99.90;;;;;;5017073;28;20056;-80
2022/06/20 06:00:28;;;;;;;5.80;1.75;;;20.70;99.90;;;;;;5015526;28;20045;-81
2022/06/20 06:02:59;;;;;;;7.03;1.80;;;20.80;99.90;;;;;;5032651;28;20049;-80
2022/06/20 06:05:31;;;;;;;7.43;1.58;;;21.10;99.90;;;;;;5032368;28;20033;-81
2022/06/20 06:08:16;;;;;;;6.95;1.83;;;21.10;99.90;;;;;;5033108;28;20279;-79
2022/06/20 06:11:16;;;;;;;5.63;1.77;;;21.20;99.90;;;;;;5032145;28;20042;-80
2022/06/20 06:14:10;;;;;;;7.10;1.92;;;21.40;99.90;;;;;;5015028;28;20053;-79
2022/06/20 06:16:56;;;;;;;6.38;1.60;;;21.50;99.90;;;;;;5032188;28;20552;-79
2022/06/20 06:19:40;;;;;;;7.13;1.85;;;21.50;99.90;;;;;;5015518;28;20353;-80
2022/06/20 06:22:16;;;;;;;8.77;2.30;;;21.60;95.70;;;;;;5015718;28;20041;-79
2022/06/20 06:24:44;;;;;;;6.85;1.70;;;21.60;98.20;;;;;;5032331;28;20045;-79
2022/06/20 06:27:20;;;;;;;6.80;2.03;;;21.60;99.90;;;;;;5015957;28;20119;-80
2022/06/20 06:30:01;;;;;;;7.15;2.40;;;21.80;98.90;;;;;;5015525;28;20547;-80
2022/06/20 06:32:36;;;;;;;7.05;2.40;;;22.00;98.70;;;;;;5032151;28;20148;-80
2022/06/20 06:35:11;;;;;;;5.85;1.65;;;22.00;98.20;;;;;;5015358;28;20096;-80
2022/06/20 06:37:41;;;;;;;9.55;2.20;;;22.00;97.00;;;;;;5032010;28;20484;-80
2022/06/20 06:40:18;;;;;;;6.28;2.30;;;21.90;95.80;;;;;;5031379;28;20092;-80
2022/06/20 06:42:46;;;;;;;7.82;2.60;;;22.10;93.60;;;;;;5015577;28;20046;-81
2022/06/20 06:45:21;;;;;;;8.35;2.15;;;22.30;97.30;;;;;;5031779;28;20100;-80
2022/06/20 06:48:24;;;;;;;8.30;2.28;;;22.50;95.80;;;;;;5033447;28;20046;-81
2022/06/20 06:50:56;;;;;;;6.95;1.80;;;22.70;91.40;;;;;;4999000;28;20088;-80
2022/06/20 06:53:43;;;;;;;7.18;2.30;;;22.70;92.20;;;;;;5015444;28;20041;-79
2022/06/20 06:56:30;;;;;;;10.40;2.67;;;22.50;90.40;;;;;;5031946;28;20076;-80
2022/06/20 06:59:09;;;;;;;5.32;1.95;;;22.50;92.30;;;;;;5015792;28;20064;-80
2022/06/20 07:01:50;;;;;;;9.93;2.05;;;22.30;93.20;;;;;;5031661;28;20504;-79
2022/06/20 07:04:28;;;;;;;8.07;2.20;;;21.50;92.60;;;;;;5031935;28;20042;-79
2022/06/20 07:07:04;;;;;;;12.43;2.65;;;20.80;95.60;;;;;;5032476;28;20064;-79
2022/06/20 07:09:42;;;;;;;8.05;2.13;;;20.70;96.90;;;;;;5014905;28;20053;-79
2022/06/20 07:12:21;;;;;;;7.70;2.15;;;20.60;95.80;;;;;;5015572;28;20052;-80
2022/06/20 07:15:01;;;;;;;5.95;2.38;;;20.80;96.90;;;;;;5031030;28;20044;-79
2022/06/20 07:17:38;;;;;;;9.10;2.30;;;20.50;96.20;;;;;;5049419;28;20037;-79
2022/06/20 07:20:05;;;;;;;5.85;2.30;;;20.40;94.90;;;;;;5040288;28;20037;-80
2022/06/20 07:22:31;;;;;;;8.02;2.40;;;20.80;96.70;;;;;;5031493;28;20038;-80
2022/06/20 07:24:57;;;;;;;8.32;1.90;;;21.30;95.20;;;;;;5031197;28;20041;-79
2022/06/20 07:27:41;;;;;;;5.95;2.05;;;21.70;94.60;;;;;;5030684;28;20053;-79
2022/06/20 07:30:14;;;;;;;4.25;1.73;;;22.10;90.00;;;;;;5014734;28;20047;-79
2022/06/20 07:32:52;;;;;;;5.90;2.17;;;22.40;92.20;;;;;;5015092;28;20037;-80
2022/06/20 07:35:32;;;;;;;7.47;2.03;;;22.40;87.60;;;;;;5031393;28;20109;-81
2022/06/20 07:38:18;;;;;;;6.55;1.60;;;21.90;91.00;;;;;;5014790;28;20068;-80
2022/06/20 07:40:56;;;;;;;8.07;2.17;;;21.40;87.00;;;;;;5031458;28;20042;-79
2022/06/20 07:43:35;;;;;;;4.30;1.80;;;21.20;91.30;;;;;;5031724;28;20095;-78
2022/06/20 07:46:11;;;;;;;8.57;2.13;;;21.40;91.90;;;;;;5030793;28;20041;-79
2022/06/20 07:48:41;;;;;;;6.40;1.60;;;21.40;91.60;;;;;;5014641;28;20095;-79
2022/06/20 07:51:39;;;;;;;6.35;1.80;;;21.20;91.10;;;;;;5014163;28;20041;-79
2022/06/20 07:54:14;;;;;;;9.20;1.88;;;21.20;91.80;;;;;;5018251;28;20104;-79
2022/06/20 07:56:58;;;;;;;4.70;1.85;;;21.60;91.10;;;;;;5030709;28;20068;-79
2022/06/20 07:59:41;;;;;;;6.78;2.05;;;22.00;90.40;;;;;;5014323;28;20053;-79
2022/06/20 08:02:21;;;;;;;5.20;1.95;;;22.50;85.90;;;;;;5014557;28;20132;-79
2022/06/20 08:04:55;;;;;;;4.80;1.80;;;22.90;85.30;;;;;;5030771;28;20034;-80
2022/06/20 08:07:24;;;;;;;6.40;2.03;;;23.40;83.30;;;;;;5030666;28;20408;-80
2022/06/20 08:10:26;;;;;;;5.97;1.80;;;23.30;86.30;;;;;;5030008;28;20504;-80
2022/06/20 08:13:01;;;;;;;4.30;1.55;;;22.90;80.90;;;;;;5030920;28;20056;-79
2022/06/20 08:15:33;;;;;;;6.10;1.77;;;22.70;88.30;;;;;;5014169;28;20040;-80
2022/06/20 08:17:59;;;;;;;5.22;1.67;;;22.50;85.20;;;;;;5014511;28;20485;-78
2022/06/20 08:20:30;;;;;;;4.82;1.63;;;22.40;86.00;;;;;;5030381;28;20037;-80
2022/06/20 08:23:04;;;;;;;10.85;2.00;;;22.10;80.30;;;;;;5013324;28;20041;-79
2022/06/20 08:25:36;;;;;;;6.97;2.08;;;21.90;84.50;;;;;;5013149;28;20573;-79
2022/06/20 08:28:16;;;;;;;4.32;1.58;;;21.40;85.30;;;;;;5029779;28;20049;-79
2022/06/20 08:31:06;;;;;;;4.20;1.67;;;21.00;85.50;;;;;;5029520;28;20459;-79
2022/06/20 08:33:55;;;;;;;4.63;1.60;;;20.70;87.70;;;;;;5012790;28;20101;-78
2022/06/20 08:36:28;;;;;;;5.90;1.95;;;21.10;90.60;;;;;;5031036;28;20029;-79
2022/06/20 08:39:00;;;;;;;3.85;1.48;;;21.30;89.80;;;;;;5031571;28;20088;-78
2022/06/20 08:41:51;;;;;;;7.68;2.00;;;21.60;88.20;;;;;;5034792;28;20041;-79
2022/06/20 08:44:32;;;;;;;;;;;21.70;83.70;;;;;;5036199;28;20041;-78
2022/06/20 08:47:36;;;;;;;6.65;2.15;;;21.30;82.40;;;;;;5033772;28;19976;-79
2022/06/20 08:50:11;;;;;;;5.88;1.70;;;21.10;86.60;;;;;;5033835;28;20124;-78
2022/06/20 08:53:22;;;;;;;10.25;1.90;;;20.80;90.20;;;;;;5033489;28;20049;-79
2022/06/20 08:56:06;;;;;;;3.40;1.48;;;20.90;90.40;;;;;;4988996;28;20060;-78
2022/06/20 08:58:43;;;;;;;3.17;1.38;;;21.20;91.20;;;;;;5033686;28;20445;-79
2022/06/20 09:01:37;;;;;;;6.45;1.75;;;21.60;87.70;;;;;;5034438;28;20456;-78
2022/06/20 09:04:33;;;;;;;7.20;1.48;;;21.80;85.60;;;;;;5016269;28;20049;-78
2022/06/20 09:07:17;;;;;;;2.97;1.20;;;22.10;85.00;;;;;;5016138;28;20096;-76
2022/06/20 09:10:02;;;;;;;7.00;1.73;;;22.30;79.90;;;;;;5032168;28;20060;-75
2022/06/20 09:12:36;;;;;;;5.85;1.35;;;22.40;85.30;;;;;;5032437;28;20497;-75
2022/06/20 09:15:19;;;;;;;4.85;1.55;;;22.60;84.10;;;;;;5032579;28;20394;-75
2022/06/20 09:17:52;;;;;;;3.63;1.35;;;22.40;82.70;;;;;;5032349;28;20069;-76
2022/06/20 09:20:37;;;;;;;2.00;1.13;;;22.10;84.60;;;;;;5032061;28;20095;-75
2022/06/20 09:23:12;;;;;;;4.53;1.20;;;22.30;83.70;;;;;;5032132;28;20500;-76
2022/06/20 09:25:46;;;;;;;2.35;0.88;;;22.50;79.70;;;;;;5032155;28;20041;-76
2022/06/20 09:28:21;;;;;;;7.82;1.30;;;22.20;74.20;;;;;;5032251;28;20132;-76
2022/06/20 09:31:10;;;;;;;3.28;1.20;;;21.70;73.50;;;;;;5031816;28;20084;-77
2022/06/20 09:33:51;;;;;;;2.47;0.90;;;21.60;77.80;;;;;;5031931;28;20053;-75
2022/06/20 09:37:01;;;;;;;3.42;0.90;;;21.80;78.50;;;;;;5032313;28;20370;-75
2022/06/20 09:39:34;;;;;;;2.40;0.85;;;22.20;76.80;;;;;;4982899;28;20514;-76
2022/06/20 09:42:14;;;;;;;4.35;1.55;;;22.60;75.40;;;;;;5031846;28;20501;-76
2022/06/20 09:45:05;;;;;;;3.28;1.15;;;22.70;76.70;;;;;;5031862;28;20084;-76
2022/06/20 09:47:53;;;;;;;4.93;1.00;;;22.90;71.80;;;;;;5031979;28;20377;-76
2022/06/20 09:50:46;;;;;;;2.03;0.90;;;23.00;70.20;;;;;;5030729;28;20120;-76
2022/06/20 09:53:37;;;;;;;2.63;0.80;;;22.60;63.70;;;;;;5032889;28;20125;-77
2022/06/20 09:56:15;;;;;;;4.63;1.13;;;22.60;67.60;;;;;;5031764;28;20045;-77
2022/06/20 09:58:55;;;;;;;2.45;1.00;;;22.60;64.10;;;;;;5015894;28;20046;-77
2022/06/20 10:01:37;;;;;;;3.05;0.90;;;22.80;65.10;;;;;;5032284;28;20047;-79
2022/06/20 10:04:09;;;;;;;2.38;0.95;;;22.70;64.80;;;;;;5032723;28;20052;-78
2022/06/20 10:06:57;;;;;;;4.72;1.02;;;22.80;65.80;;;;;;5032826;28;20053;-78
2022/06/20 10:09:26;;;;;;;3.05;1.35;;;22.80;65.70;;;;;;5032509;28;20047;-78
2022/06/20 10:12:15;;;;;;;3.80;1.10;;;22.40;65.90;;;;;;5033594;28;20665;-78
2022/06/20 10:15:06;;;;;;;3.53;1.23;;;22.00;65.90;;;;;;5032456;28;20046;-78
2022/06/20 10:17:53;;;;;;;3.88;1.20;;;21.80;68.40;;;;;;5032448;28;20041;-79
2022/06/20 10:20:37;;;;;;;3.65;1.25;;;21.50;68.90;;;;;;5032619;28;20095;-79
2022/06/20 10:23:16;;;;;;;4.45;1.00;;;21.80;71.10;;;;;;5032682;28;20049;-78
2022/06/20 10:26:04;;;;;;;4.25;1.40;;;22.20;73.10;;;;;;5031974;28;20118;-78
2022/06/20 10:28:59;;;;;;;5.82;1.50;;;22.40;72.50;;;;;;5032202;28;20053;-78
2022/06/20 10:31:34;;;;;;;4.60;1.95;;;22.10;70.60;;;;;;5015006;28;20046;-78
2022/06/20 10:34:00;;;;;;;3.97;1.50;;;21.80;72.70;;;;;;5032265;28;20041;-77
2022/06/20 10:36:35;;;;;;;7.40;1.58;;;21.50;73.60;;;;;;5032133;28;20045;-78
2022/06/20 10:39:13;;;;;;;5.30;1.13;;;21.20;75.60;;;;;;5016005;28;20120;-78
2022/06/20 10:42:00;;;;;;;4.30;1.15;;;21.20;78.10;;;;;;5031460;28;20037;-78
2022/06/20 10:44:57;;;;;;;6.80;1.38;;;21.50;78.60;;;;;;5031519;28;20042;-79
2022/06/20 10:47:45;;;;;;;6.35;1.60;;;22.00;79.10;;;;;;5031739;28;20045;-77
2022/06/20 10:50:25;;;;;;;5.22;1.33;;;22.10;78.50;;;;;;5031339;28;20045;-78
2022/06/20 10:53:02;;;;;;;4.80;1.27;;;22.40;78.00;;;;;;5031781;28;20148;-79
2022/06/20 10:55:49;;;;;;;4.18;1.20;;;22.50;72.60;;;;;;5031788;28;20033;-79
2022/06/20 10:58:30;;;;;;;3.72;0.98;;;22.60;70.20;;;;;;5031222;28;20037;-78
2022/06/20 11:01:24;;;;;;;5.68;1.08;;;22.70;69.30;;;;;;5030854;28;20042;-77
2022/06/20 11:04:32;;;;;;;2.63;0.88;;;22.80;67.30;;;;;;5030545;28;20496;-77
2022/06/20 11:07:00;;;;;;;5.70;1.50;;;22.80;65.80;;;;;;5032245;28;20056;-79
2022/06/20 11:10:06;;;;;;;6.57;1.38;;;22.90;67.40;;;;;;5032494;28;20370;-72
2022/06/20 11:12:57;;;;;;;4.70;1.70;;;23.00;67.90;;;;;;4997841;28;20060;-78
2022/06/20 11:15:38;;;;;;;4.97;1.30;;;23.10;69.30;;;;;;5014156;28;20095;-78
2022/06/20 11:18:27;;;;;;;3.70;1.07;;;22.70;66.20;;;;;;5031106;28;20370;-77
2022/06/20 11:21:05;;;;;;;7.63;1.50;;;22.30;66.40;;;;;;5022825;28;20509;-78
2022/06/20 11:23:46;;;;;;;5.95;1.85;;;21.80;70.70;;;;;;5030983;28;20390;-79
2022/06/20 11:26:21;;;;;;;6.22;1.58;;;21.30;74.70;;;;;;5032175;28;20033;-78
2022/06/20 11:29:14;;;;;;;4.80;1.33;;;21.00;76.40;;;;;;5030932;28;20041;-78
2022/06/20 11:31:58;;;;;;;3.88;1.40;;;21.10;80.60;;;;;;5031588;28;20053;-76
2022/06/20 11:35:05;;;;;;;7.75;1.50;;;21.40;77.90;;;;;;5029852;28;20179;-76
2022/06/20 11:38:06;;;;;;;6.13;1.30;;;21.80;79.70;;;;;;4973335;28;20529;-77
2022/06/20 11:40:43;;;;;;;8.55;1.70;;;22.30;78.40;;;;;;4968989;28;20050;-77
2022/06/20 11:43:30;;;;;;;4.97;1.50;;;22.70;75.80;;;;;;5018162;28;20057;-78
2022/06/20 11:46:22;;;;;;;5.88;1.25;;;22.90;74.80;;;;;;5029961;28;20045;-77
2022/06/20 11:49:05;;;;;;;4.95;1.58;;;22.80;71.80;;;;;;5001984;28;20079;-77
2022/06/20 11:51:56;;;;;;;4.72;1.65;;;22.50;71.70;;;;;;5029558;28;20181;-76
2022/06/20 11:54:44;;;;;;;3.58;1.38;;;22.30;74.60;;;;;;5029657;28;20038;-77
2022/06/20 11:57:22;;;;;;;4.47;1.33;;;22.30;71.50;;;;;;5029748;28;20046;-78
2022/06/20 12:00:14;;;;;;;7.65;1.73;;;22.30;66.90;;;;;;5029382;28;20120;-78
2022/06/20 12:02:53;;;;;;;;;;;22.40;67.80;;;;;;5041578;28;20049;-77
2022/06/20 12:05:18;;;;;;;4.93;1.70;;;22.20;68.20;;;;;;5043441;28;19932;-76
2022/06/20 12:08:01;;;;;;;6.05;1.40;;;22.10;70.40;;;;;;5046071;28;20073;-76
2022/06/20 12:10:39;;;;;;;6.90;2.05;;;21.90;73.20;;;;;;5032608;28;20433;-77
2022/06/20 12:13:29;;;;;;;6.18;1.67;;;22.00;72.50;;;;;;5029993;28;20129;-77
2022/06/20 12:16:19;;;;;;;3.53;1.30;;;22.00;72.70;;;;;;5033800;28;20053;-77
2022/06/20 12:24:46;;;;;;;3.67;1.13;;;21.20;75.10;;;;;;5016806;28;20056;-77
2022/06/20 12:27:15;;;;;;;2.50;1.30;;;21.50;73.20;;;;;;5033421;28;20523;-77
2022/06/20 12:29:42;;;;;;;3.85;0.90;;;21.70;70.00;;;;;;5032955;28;20056;-76
2022/06/20 12:32:18;;;;;;;5.15;1.40;;;21.90;69.60;;;;;;5033425;28;20042;-77
2022/06/20 12:34:58;;;;;;;4.68;1.20;;;22.10;70.10;;;;;;5032959;28;20056;-77
2022/06/20 12:38:06;;;;;;;5.85;1.20;;;22.30;72.70;;;;;;5016945;28;20041;-76
2022/06/20 12:40:48;;;;;;;1.92;0.90;;;22.10;69.20;;;;;;5024761;28;20045;-78
2022/06/20 12:43:19;;;;;;;3.13;0.88;;;21.90;64.40;;;;;;5033222;28;20085;-77
2022/06/20 12:46:33;;;;;;;3.70;1.08;;;21.70;65.40;;;;;;5032943;28;20045;-77
2022/06/20 12:49:14;;;;;;;1.95;1.23;;;21.90;64.70;;;;;;5010321;28;20058;-77
2022/06/20 12:52:00;;;;;;;5.63;1.30;;;22.20;66.20;;;;;;5032574;28;20056;-78
2022/06/20 12:54:58;;;;;;;2.80;1.60;;;22.20;67.80;;;;;;5032713;28;20049;-76
2022/06/20 12:57:41;;;;;;;5.15;1.38;;;21.70;70.30;;;;;;5032926;28;20510;-76
2022/06/20 13:00:48;;;;;;;3.95;1.40;;;21.30;73.60;;;;;;5032827;28;20041;-77
2022/06/20 13:03:49;;;;;;;4.78;1.33;;;21.00;78.10;;;;;;5032003;28;20066;-77
2022/06/20 13:06:41;;;;;;;3.75;1.35;;;21.00;81.80;;;;;;5032674;28;20297;-76
2022/06/20 13:09:38;;;;;;;5.03;1.40;;;21.00;78.20;;;;;;5032472;28;20084;-78
2022/06/20 13:12:20;;;;;;;2.63;1.38;;;21.00;77.60;;;;;;5032590;28;20104;-77
2022/06/20 13:15:00;;;;;;;3.53;1.13;;;21.00;75.10;;;;;;5016094;28;20049;-77
2022/06/20 13:17:47;;;;;;;2.10;1.40;;;21.40;74.70;;;;;;5032573;28;20524;-76
2022/06/20 13:20:44;;;;;;;3.08;1.17;;;21.70;73.50;;;;;;5032253;28;20465;-77
2022/06/20 13:23:29;;;;;;;4.63;1.17;;;21.50;70.90;;;;;;5032276;28;20049;-78
2022/06/20 13:26:05;;;;;;;5.43;1.30;;;21.00;73.20;;;;;;5031008;28;20045;-77
2022/06/20 13:28:58;;;;;;;3.67;1.20;;;20.70;75.70;;;;;;5032185;28;20050;-76
2022/06/20 13:31:33;;;;;;;5.22;1.50;;;20.40;80.50;;;;;;5031959;28;20042;-77
2022/06/20 13:34:16;;;;;;;4.60;1.48;;;20.10;82.20;;;;;;5031923;28;20120;-76
2022/06/20 13:37:05;;;;;;;4.57;2.03;;;20.10;82.90;;;;;;5031998;28;20045;-77
2022/06/20 13:39:47;;;;;;;3.50;1.45;;;20.00;85.10;;;;;;5031766;28;20041;-77
2022/06/20 13:42:25;;;;;;;4.57;1.50;;;20.20;85.60;;;;;;5031955;28;20159;-77
2022/06/20 13:45:15;;;;;;;7.22;1.50;;;20.30;84.70;;;;;;5031799;28;20046;-76
2022/06/20 13:48:01;;;;;;;4.63;1.83;;;20.40;84.20;;;;;;5031917;28;20116;-76
2022/06/20 13:50:46;;;;;;;3.60;1.50;;;20.40;83.70;;;;;;5031473;28;20041;-76
2022/06/20 13:53:22;;;;;;;4.55;1.30;;;20.60;85.40;;;;;;5031737;28;20037;-76
2022/06/20 13:56:02;;;;;;;3.75;1.58;;;20.70;82.60;;;;;;5032032;28;20049;-76
2022/06/20 13:58:48;;;;;;;3.35;1.20;;;20.50;81.80;;;;;;5031944;28;20441;-76
2022/06/20 14:01:17;;;;;;;4.82;1.10;;;20.20;82.70;;;;;;5031364;28;20076;-76